ポンペイ島 の空港の天気 - METARとTAF

ポンペイ国際空港 ( PTPN / PNI ) - ミクロネシア連邦 ポンペイ島
飛行場実況気象(Metar)
観測時間10/24 13:52 +11 (10/24 02:52 UTC)
風向・風速北北東 3m/s
視程10km以上
天気現象
全天の4割程度の雲 雲底高度 550m
全天の8割程度の雲 雲底高度 9140m
気温32℃
湿度71%
気圧1007hPa
METARPTPN 240252Z 02006KT 15SM SCT018 BKN300 32/26 A2974
過去の天気等 Google飛行場航空写真 Wunderground天気予報

過去48時間のMETAR

飛行場予報(TAF)
発表時間: 10/24 10:34 +11 (10/23 23:34 UTC)
予報対象時間: 24日11時 +11 ~ 25日11時 +11
風向・風速北東 4m/s
視程10km以上
少しの雲 雲底高度 550m
全天の4割程度の雲 雲底高度 1520m
PTPN 232334Z 2400/2424 05007KT P6SM FEW018 SCT050